Strona główna
METAR-TAF:

METAR-TAF

Lotnisko :

Port lotniczy Phú Quốc

Phú Quốc, Wietnam

Szerokość geograficzna: 10-10-18N, Długość geograficzna: 103-59-28E, wysokość: 11 m

Aktualna obserwacja pogody

Raport powstał 36 minut temu, godzina 04:30 UTC
Wiatr 12 kt od północny wschód w porywach dochodzący do 25 kt, zmienny między północno-północny zachód i wschodnio-północny wschód
Temperatura 26°C
Wilgotność 45%
Ciśnienie 1013 hPa
Widzialność 10 km lub więcej
Brak chmur poniżej 1500 m i brak chmur cumulonimbus

METAR: VVPQ 070430Z 04012G25KT 340V060 CAVOK 26/13 Q1013 NOSIG

czas: 12:06 (05:06 UTC)

Prognoza

Raport powstał 6 godziny i 6 minut temu, godzina 23:00 UTC
Prognoza ważna od 07 godzina 00 UTC do 07 godzina 24 UTC
Wiatr 10 kt od północno-północny wschód
Widzialność 10 km lub więcej
Rozproszone chmury na wysokości 1700 ft
Przejściowo
od 07 godzina 00 UTC do 07 godzina 06 UTC
Wiatr 15 kt od północno-północny wschód w porywach dochodzący do 28 kt

TAF: VVPQ 062300Z 0700/0724 03010KT 9999 SCT017 TEMPO 0700/0706 03015G28KT

Obserwacja i prognoza pogody dla ponad 4000 lotnisk (raport METAR i TAF).

Dostępne stacje oznaczono żółtymi i czerwonymi punktami na mapie.

Najedź kursorem aby zobaczyć nazwę stacji.

Kliknij aby zobaczyć obserwacje i prognozy pogody.

Aby zmienić mapę: kliknij na zielony przycisk z czarnym krzyżykiem, aby powiększyć; na zielony przycisk z myślnikiem, aby pomniejszyć; na zielone strzałki, aby przejść do map sąsiednich.


METAR-TAF: